| time (UTC) | temp F | wind direction | speed MPH | gust MPH | rain 1hr in | rain 24hr in | rain mn in | humidity % | barometer mb |
| 20260904005525 | 69 | 183 | 0.0 | 5.0 | 0.00 | 0.02 | 0.00 | 57 | 1009.5 |
| 20260904005025 | 70 | 256 | 0.0 | 5.0 | 0.00 | 0.02 | 0.00 | 57 | 1009.6 |
| 20260904004551 | 70 | 0 | 0.0 | 3.0 | 0.00 | 0.02 | 0.00 | 58 | 1009.5 |
| 20260904004029 | 69 | 134 | 0.0 | 3.0 | 0.00 | 0.02 | 0.00 | 58 | 1009.5 |
| 20260904003525 | 69 | 353 | 1.0 | 4.0 | 0.00 | 0.02 | 0.00 | 59 | 1009.5 |
| 20260904003048 | 69 | 284 | 1.0 | 4.0 | 0.00 | 0.02 | 0.00 | 58 | 1009.5 |
| 20260904002525 | 69 | 255 | 0.0 | 4.0 | 0.00 | 0.02 | 0.00 | 59 | 1009.6 |
| 20260904002026 | 69 | 0 | 1.0 | 4.0 | 0.00 | 0.02 | 0.00 | 58 | 1009.7 |
| 20260904001546 | 69 | 139 | 1.0 | 4.0 | 0.00 | 0.02 | 0.00 | 59 | 1009.7 |
| 20260904001026 | 69 | 241 | 2.0 | 4.0 | 0.00 | 0.02 | 0.00 | 57 | 1009.7 |
| 20260904000527 | 69 | 170 | 1.0 | 4.0 | 0.00 | 0.02 | 0.00 | 57 | 1009.6 |
| 20260904000047 | 69 | 200 | 1.0 | 4.0 | 0.00 | 0.02 | 0.00 | 59 | 1009.7 |
| 20260903235527 | 69 | 248 | 2.0 | 5.0 | 0.00 | 0.03 | 0.00 | 58 | 1009.8 |
| 20260903235029 | 69 | 308 | 2.0 | 6.0 | 0.00 | 0.03 | 0.00 | 58 | 1009.7 |
| 20260903234550 | 69 | 240 | 0.0 | 6.0 | 0.00 | 0.03 | 0.00 | 59 | 1009.8 |
| 20260903234026 | 69 | 254 | 2.0 | 5.0 | 0.00 | 0.03 | 0.00 | 59 | 1009.6 |
| 20260903233525 | 68 | 165 | 2.0 | 6.0 | 0.00 | 0.03 | 0.00 | 59 | 1009.8 |
| 20260903233052 | 69 | 300 | 2.0 | 7.0 | 0.00 | 0.03 | 0.00 | 60 | 1009.7 |
| 20260903232525 | 68 | 276 | 2.0 | 7.0 | 0.00 | 0.03 | 0.00 | 60 | 1009.6 |
| 20260903232026 | 68 | 253 | 2.0 | 5.0 | 0.00 | 0.03 | 0.00 | 60 | 1009.7 |
| 20260903231549 | 69 | 34 | 2.0 | 5.0 | 0.00 | 0.03 | 0.00 | 60 | 1009.7 |
| 20260903231025 | 68 | 235 | 1.0 | 5.0 | 0.00 | 0.03 | 0.00 | 61 | 1009.7 |
| 20260903230524 | 69 | 148 | 2.0 | 6.0 | 0.00 | 0.03 | 0.00 | 60 | 1009.8 |
| 20260903230048 | 69 | 148 | 2.0 | 7.0 | 0.00 | 0.03 | 0.00 | 61 | 1009.7 |
| 20260903225529 | 68 | 120 | 1.0 | 7.0 | 0.00 | 0.03 | 0.00 | 61 | 1009.8 |
| 20260903225027 | 68 | 79 | 2.0 | 6.0 | 0.00 | 0.03 | 0.00 | 61 | 1009.9 |
| 20260903224543 | 69 | 261 | 2.0 | 5.0 | 0.00 | 0.03 | 0.00 | 61 | 1009.9 |
| 20260903224026 | 69 | 108 | 1.0 | 5.0 | 0.00 | 0.03 | 0.00 | 62 | 1009.9 |
| 20260903223526 | 68 | 86 | 1.0 | 6.0 | 0.00 | 0.03 | 0.00 | 61 | 1009.8 |
| 20260903223055 | 68 | 233 | 2.0 | 6.0 | 0.00 | 0.03 | 0.00 | 61 | 1009.9 |
| 20260903222524 | 68 | 250 | 2.0 | 5.0 | 0.00 | 0.03 | 0.00 | 62 | 1010.0 |
| 20260903222025 | 68 | 117 | 1.0 | 5.0 | 0.00 | 0.03 | 0.00 | 62 | 1010.0 |
| 20260903221547 | 68 | 179 | 0.0 | 5.0 | 0.00 | 0.03 | 0.00 | 63 | 1010.0 |
| 20260903221025 | 68 | 184 | 1.0 | 4.0 | 0.00 | 0.03 | 0.00 | 62 | 1010.1 |
| 20260903220524 | 68 | 0 | 0.0 | 2.0 | 0.00 | 0.03 | 0.00 | 62 | 1010.2 |
| 20260903215525 | 68 | 112 | 1.0 | 4.0 | 0.00 | 0.03 | 0.00 | 61 | 1010.2 |
| 20260903215027 | 68 | 300 | 1.0 | 4.0 | 0.00 | 0.03 | 0.00 | 61 | 1010.2 |
| 20260903214543 | 68 | 153 | 1.0 | 6.0 | 0.00 | 0.03 | 0.00 | 62 | 1010.2 |
| 20260903214025 | 68 | 193 | 2.0 | 6.0 | 0.00 | 0.03 | 0.00 | 61 | 1010.2 |
| 20260903213525 | 68 | 119 | 2.0 | 6.0 | 0.00 | 0.03 | 0.00 | 62 | 1010.2 |
| 20260903213049 | 69 | 210 | 3.0 | 6.0 | 0.00 | 0.03 | 0.00 | 60 | 1010.3 |
| 20260903212527 | 69 | 168 | 2.0 | 5.0 | 0.00 | 0.03 | 0.00 | 62 | 1010.2 |
| 20260903212026 | 69 | 197 | 2.0 | 6.0 | 0.00 | 0.03 | 0.00 | 61 | 1010.2 |
| 20260903211548 | 68 | 225 | 3.0 | 7.0 | 0.00 | 0.03 | 0.00 | 62 | 1010.2 |
| 20260903211025 | 68 | 228 | 3.0 | 7.0 | 0.00 | 0.03 | 0.00 | 62 | 1010.2 |
| 20260903210526 | 68 | 174 | 3.0 | 7.0 | 0.00 | 0.03 | 0.00 | 64 | 1010.2 |
| 20260903210052 | 67 | 255 | 2.0 | 6.0 | 0.00 | 0.03 | 0.00 | 68 | 1010.2 |
| 20260903205526 | 66 | 229 | 2.0 | 6.0 | 0.00 | 0.03 | 0.00 | 69 | 1010.1 |
| 20260903205025 | 65 | 167 | 3.0 | 6.0 | 0.00 | 0.03 | 0.00 | 66 | 1010.1 |
| 20260903204550 | 66 | 127 | 3.0 | 6.0 | 0.00 | 0.03 | 0.00 | 65 | 1010.1 |
| 20260903204024 | 66 | 141 | 2.0 | 7.0 | 0.00 | 0.03 | 0.00 | 67 | 1010.1 |
| 20260903203527 | 66 | 207 | 2.0 | 7.0 | 0.00 | 0.03 | 0.00 | 68 | 1010.1 |
| 20260903203050 | 66 | 148 | 3.0 | 7.0 | 0.00 | 0.03 | 0.00 | 67 | 1010.1 |
| 20260903202524 | 65 | 139 | 2.0 | 7.0 | 0.00 | 0.03 | 0.00 | 69 | 1010.1 |
| 20260903202026 | 64 | 169 | 1.0 | 7.0 | 0.00 | 0.03 | 0.00 | 72 | 1010.1 |
| 20260903201547 | 64 | 123 | 4.0 | 7.0 | 0.00 | 0.03 | 0.00 | 69 | 1010.1 |
| 20260903201024 | 63 | 136 | 4.0 | 7.0 | 0.00 | 0.03 | 0.00 | 71 | 1010.2 |
| 20260903200525 | 63 | 142 | 4.0 | 8.0 | 0.00 | 0.03 | 0.00 | 69 | 1010.1 |
| 20260903200047 | 63 | 139 | 4.0 | 8.0 | 0.00 | 0.03 | 0.00 | 69 | 1010.2 |
| 20260903195527 | 63 | 130 | 5.0 | 8.0 | 0.00 | 0.03 | 0.00 | 70 | 1010.1 |
| 20260903195026 | 63 | 192 | 5.0 | 8.0 | 0.00 | 0.03 | 0.00 | 69 | 1010.1 |
| 20260903194548 | 63 | 155 | 6.0 | 8.0 | 0.00 | 0.03 | 0.00 | 69 | 1010.2 |
| 20260903194030 | 63 | 137 | 3.0 | 7.0 | 0.00 | 0.03 | 0.00 | 71 | 1010.1 |
| 20260903193525 | 63 | 91 | 4.0 | 7.0 | 0.00 | 0.03 | 0.00 | 69 | 1010.0 |
| 20260903193055 | 63 | 146 | 4.0 | 9.0 | 0.00 | 0.03 | 0.00 | 69 | 1010.1 |
| 20260903192526 | 63 | 98 | 6.0 | 9.0 | 0.00 | 0.03 | 0.00 | 68 | 1010.0 |
| 20260903192025 | 63 | 110 | 5.0 | 8.0 | 0.00 | 0.03 | 0.00 | 69 | 1010.0 |
| 20260903191545 | 63 | 118 | 4.0 | 7.0 | 0.00 | 0.03 | 0.00 | 71 | 1009.9 |
| 20260903191025 | 63 | 115 | 2.0 | 4.0 | 0.00 | 0.03 | 0.00 | 71 | 1009.9 |
| 20260903190527 | 63 | 101 | 2.0 | 4.0 | 0.00 | 0.03 | 0.00 | 70 | 1009.9 |
| 20260903190050 | 63 | 98 | 2.0 | 7.0 | 0.00 | 0.03 | 0.00 | 72 | 1009.8 |
| 20260903185529 | 63 | 52 | 2.0 | 7.0 | 0.00 | 0.03 | 0.00 | 70 | 1009.9 |
| 20260903185026 | 63 | 92 | 5.0 | 9.0 | 0.00 | 0.03 | 0.00 | 70 | 1009.8 |
| 20260903184548 | 64 | 136 | 5.0 | 9.0 | 0.00 | 0.03 | 0.00 | 70 | 1009.8 |
| 20260903184028 | 64 | 122 | 3.0 | 7.0 | 0.00 | 0.03 | 0.00 | 71 | 1009.8 |
| 20260903183526 | 64 | 141 | 4.0 | 7.0 | 0.00 | 0.03 | 0.00 | 71 | 1009.8 |
| 20260903183048 | 63 | 124 | 4.0 | 10.0 | 0.00 | 0.03 | 0.00 | 72 | 1009.7 |
| 20260903182526 | 62 | 141 | 6.0 | 10.0 | 0.00 | 0.03 | 0.00 | 70 | 1009.8 |
| 20260903182028 | 62 | 135 | 7.0 | 10.0 | 0.00 | 0.03 | 0.00 | 71 | 1009.8 |
| 20260903181547 | 62 | 145 | 7.0 | 10.0 | 0.00 | 0.03 | 0.00 | 72 | 1009.8 |
| 20260903181028 | 62 | 186 | 8.0 | 10.0 | 0.00 | 0.03 | 0.00 | 73 | 1009.8 |
| 20260903180525 | 62 | 105 | 3.0 | 8.0 | 0.00 | 0.03 | 0.00 | 74 | 1009.6 |
| 20260903180044 | 62 | 75 | 5.0 | 8.0 | 0.00 | 0.03 | 0.00 | 73 | 1009.7 |
| 20260903175526 | 61 | 125 | 3.0 | 8.0 | 0.00 | 0.03 | 0.00 | 76 | 1009.6 |
| 20260903175025 | 61 | 86 | 5.0 | 8.0 | 0.00 | 0.03 | 0.00 | 76 | 1009.5 |
| 20260903174550 | 61 | 72 | 4.0 | 7.0 | 0.00 | 0.03 | 0.00 | 76 | 1009.6 |
| 20260903174025 | 61 | 134 | 4.0 | 7.0 | 0.00 | 0.03 | 0.00 | 76 | 1009.4 |
| 20260903173527 | 61 | 66 | 4.0 | 7.0 | 0.00 | 0.03 | 0.00 | 76 | 1009.4 |
| 20260903173050 | 61 | 96 | 4.0 | 9.0 | 0.00 | 0.03 | 0.00 | 76 | 1009.4 |
| 20260903172529 | 61 | 54 | 6.0 | 9.0 | 0.00 | 0.03 | 0.00 | 77 | 1009.4 |
| 20260903172029 | 60 | 45 | 6.0 | 12.0 | 0.00 | 0.03 | 0.00 | 77 | 1009.4 |
| 20260903171548 | 60 | 93 | 6.0 | 12.0 | 0.00 | 0.03 | 0.00 | 78 | 1009.3 |
| 20260903171027 | 60 | 96 | 6.0 | 12.0 | 0.00 | 0.03 | 0.00 | 77 | 1009.3 |
| 20260903170527 | 60 | 120 | 4.0 | 10.0 | 0.00 | 0.03 | 0.00 | 78 | 1009.3 |
| 20260903170045 | 60 | 82 | 5.0 | 8.0 | 0.00 | 0.03 | 0.00 | 78 | 1009.3 |
| 20260903165527 | 60 | 105 | 4.0 | 8.0 | 0.00 | 0.03 | 0.00 | 78 | 1009.2 |
| 20260903165028 | 60 | 115 | 5.0 | 10.0 | 0.00 | 0.03 | 0.00 | 79 | 1009.2 |
| 20260903164552 | 60 | 81 | 4.0 | 10.0 | 0.00 | 0.03 | 0.00 | 79 | 1009.2 |
| 20260903164026 | 60 | 98 | 5.0 | 9.0 | 0.00 | 0.03 | 0.00 | 79 | 1009.1 |
| 20260903163526 | 59 | 81 | 5.0 | 7.0 | 0.00 | 0.03 | 0.00 | 80 | 1009.1 |
| 20260903163049 | 59 | 124 | 4.0 | 8.0 | 0.00 | 0.03 | 0.00 | 80 | 1009.1 |
| 20260903162524 | 59 | 104 | 5.0 | 8.0 | 0.00 | 0.03 | 0.00 | 80 | 1009.1 |
| 20260903162025 | 59 | 63 | 4.0 | 7.0 | 0.00 | 0.03 | 0.00 | 80 | 1009.0 |
| 20260903161549 | 59 | 115 | 4.0 | 7.0 | 0.00 | 0.03 | 0.00 | 81 | 1009.2 |
| 20260903161026 | 59 | 70 | 3.0 | 7.0 | 0.00 | 0.03 | 0.00 | 81 | 1009.1 |
| 20260903160525 | 58 | 110 | 3.0 | 6.0 | 0.00 | 0.03 | 0.00 | 82 | 1009.0 |
| 20260903160048 | 58 | 101 | 3.0 | 6.0 | 0.00 | 0.03 | 0.00 | 82 | 1008.9 |
| 20260903155526 | 58 | 73 | 4.0 | 6.0 | 0.00 | 0.03 | 0.00 | 83 | 1009.0 |
| 20260903155026 | 57 | 101 | 3.0 | 6.0 | 0.00 | 0.03 | 0.00 | 84 | 1008.9 |
| 20260903154552 | 57 | 81 | 4.0 | 6.0 | 0.00 | 0.03 | 0.00 | 84 | 1008.9 |
| 20260903154023 | 57 | 108 | 4.0 | 6.0 | 0.00 | 0.03 | 0.00 | 84 | 1008.9 |
| 20260903153530 | 57 | 113 | 3.0 | 6.0 | 0.00 | 0.03 | 0.00 | 84 | 1008.8 |
| 20260903153049 | 57 | 62 | 5.0 | 7.0 | 0.00 | 0.03 | 0.00 | 84 | 1008.8 |
| 20260903152525 | 57 | 71 | 4.0 | 7.0 | 0.00 | 0.03 | 0.00 | 84 | 1008.8 |
| 20260903152027 | 57 | 94 | 3.0 | 6.0 | 0.00 | 0.03 | 0.00 | 83 | 1008.9 |
| 20260903151554 | 57 | 91 | 2.0 | 4.0 | 0.00 | 0.03 | 0.00 | 83 | 1008.8 |
| 20260903151024 | 57 | 131 | 2.0 | 4.0 | 0.00 | 0.03 | 0.00 | 83 | 1008.8 |
| 20260903150526 | 57 | 124 | 2.0 | 4.0 | 0.00 | 0.03 | 0.00 | 83 | 1008.6 |
| 20260903150059 | 57 | 67 | 2.0 | 4.0 | 0.00 | 0.03 | 0.00 | 83 | 1008.7 |
| 20260903145527 | 57 | 65 | 2.0 | 5.0 | 0.00 | 0.03 | 0.00 | 84 | 1008.8 |
| 20260903145026 | 57 | 135 | 3.0 | 6.0 | 0.00 | 0.03 | 0.00 | 84 | 1008.7 |
| 20260903144549 | 57 | 72 | 4.0 | 6.0 | 0.00 | 0.03 | 0.00 | 84 | 1008.7 |
| 20260903144025 | 56 | 74 | 2.0 | 5.0 | 0.00 | 0.03 | 0.00 | 85 | 1008.7 |
| 20260903143528 | 56 | 73 | 3.0 | 6.0 | 0.00 | 0.03 | 0.00 | 84 | 1008.7 |
| 20260903143055 | 56 | 131 | 4.0 | 6.0 | 0.00 | 0.03 | 0.00 | 85 | 1008.7 |
| 20260903142526 | 56 | 91 | 3.0 | 6.0 | 0.00 | 0.03 | 0.00 | 85 | 1008.7 |
| 20260903142026 | 56 | 107 | 2.0 | 6.0 | 0.00 | 0.03 | 0.00 | 84 | 1008.6 |
| 20260903141548 | 56 | 69 | 2.0 | 5.0 | 0.00 | 0.03 | 0.00 | 85 | 1008.5 |
| 20260903141024 | 56 | 67 | 2.0 | 4.0 | 0.00 | 0.03 | 0.00 | 84 | 1008.4 |
| 20260903140525 | 57 | 105 | 2.0 | 4.0 | 0.00 | 0.03 | 0.00 | 84 | 1008.4 |
| 20260903140057 | 57 | 105 | 2.0 | 5.0 | 0.00 | 0.03 | 0.00 | 84 | 1008.3 |
| 20260903135526 | 57 | 77 | 4.0 | 5.0 | 0.00 | 0.03 | 0.00 | 84 | 1008.3 |
| 20260903135026 | 57 | 80 | 2.0 | 4.0 | 0.00 | 0.03 | 0.00 | 83 | 1008.2 |
| 20260903134555 | 57 | 93 | 2.0 | 4.0 | 0.00 | 0.03 | 0.00 | 83 | 1008.2 |
| 20260903134024 | 57 | 107 | 2.0 | 5.0 | 0.00 | 0.03 | 0.00 | 82 | 1008.2 |
| 20260903133530 | 57 | 89 | 3.0 | 5.0 | 0.00 | 0.03 | 0.00 | 82 | 1008.1 |
| 20260903133048 | 57 | 66 | 3.0 | 6.0 | 0.00 | 0.03 | 0.00 | 82 | 1008.0 |
| 20260903132526 | 57 | 127 | 3.0 | 6.0 | 0.00 | 0.03 | 0.00 | 81 | 1007.9 |
| 20260903132024 | 58 | 91 | 3.0 | 7.0 | 0.00 | 0.03 | 0.00 | 81 | 1007.9 |
| 20260903131552 | 58 | 81 | 3.0 | 7.0 | 0.00 | 0.03 | 0.00 | 81 | 1007.9 |
| 20260903131025 | 58 | 69 | 3.0 | 6.0 | 0.00 | 0.03 | 0.00 | 80 | 1007.8 |
| 20260903130529 | 58 | 51 | 4.0 | 8.0 | 0.00 | 0.03 | 0.00 | 80 | 1007.7 |
| 20260903130051 | 58 | 70 | 4.0 | 9.0 | 0.00 | 0.03 | 0.00 | 80 | 1007.6 |
| 20260903125527 | 58 | 65 | 5.0 | 9.0 | 0.00 | 0.03 | 0.00 | 79 | 1007.6 |
| 20260903125026 | 58 | 101 | 4.0 | 11.0 | 0.00 | 0.03 | 0.00 | 80 | 1007.7 |
| 20260903124549 | 58 | 85 | 5.0 | 11.0 | 0.00 | 0.03 | 0.00 | 79 | 1007.5 |
| 20260903124025 | 58 | 91 | 4.0 | 9.0 | 0.00 | 0.03 | 0.00 | 79 | 1007.5 |
| 20260903123527 | 58 | 84 | 4.0 | 8.0 | 0.00 | 0.03 | 0.00 | 79 | 1007.5 |
| 20260903123046 | 58 | 79 | 4.0 | 7.0 | 0.00 | 0.03 | 0.00 | 79 | 1007.5 |
| 20260903122527 | 58 | 84 | 4.0 | 7.0 | 0.00 | 0.03 | 0.00 | 78 | 1007.5 |
| 20260903122028 | 58 | 103 | 3.0 | 9.0 | 0.00 | 0.03 | 0.00 | 78 | 1007.5 |
| 20260903121546 | 58 | 92 | 5.0 | 9.0 | 0.00 | 0.03 | 0.00 | 78 | 1007.5 |
| 20260903121027 | 58 | 77 | 3.0 | 7.0 | 0.00 | 0.03 | 0.00 | 77 | 1007.5 |
| 20260903120526 | 58 | 106 | 5.0 | 7.0 | 0.00 | 0.03 | 0.00 | 77 | 1007.4 |
| 20260903120055 | 58 | 96 | 5.0 | 7.0 | 0.00 | 0.03 | 0.00 | 77 | 1007.4 |
| 20260903115526 | 58 | 126 | 3.0 | 5.0 | 0.00 | 0.03 | 0.00 | 77 | 1007.3 |
| 20260903115028 | 58 | 115 | 3.0 | 7.0 | 0.00 | 0.03 | 0.00 | 77 | 1007.2 |
| 20260903114548 | 58 | 71 | 3.0 | 7.0 | 0.00 | 0.03 | 0.00 | 76 | 1007.2 |
| 20260903114024 | 59 | 97 | 4.0 | 7.0 | 0.00 | 0.03 | 0.00 | 76 | 1007.2 |
| 20260903113525 | 59 | 82 | 4.0 | 10.0 | 0.00 | 0.03 | 0.00 | 76 | 1007.2 |
| 20260903113048 | 59 | 82 | 4.0 | 10.0 | 0.00 | 0.03 | 0.00 | 76 | 1007.1 |
| 20260903112528 | 58 | 85 | 4.0 | 10.0 | 0.00 | 0.03 | 0.00 | 76 | 1007.1 |
| 20260903112025 | 59 | 112 | 3.0 | 8.0 | 0.00 | 0.03 | 0.00 | 76 | 1007.1 |
| 20260903111546 | 59 | 82 | 4.0 | 9.0 | 0.00 | 0.03 | 0.00 | 76 | 1007.1 |
| 20260903111027 | 59 | 112 | 5.0 | 9.0 | 0.00 | 0.03 | 0.00 | 76 | 1007.0 |
| 20260903110526 | 59 | 100 | 4.0 | 8.0 | 0.00 | 0.03 | 0.00 | 77 | 1007.0 |
| 20260903110048 | 59 | 119 | 4.0 | 8.0 | 0.00 | 0.03 | 0.00 | 76 | 1007.0 |
| 20260903105522 | 59 | 100 | 4.0 | 8.0 | 0.00 | 0.03 | 0.00 | 76 | 1007.0 |
| 20260903105026 | 59 | 88 | 2.0 | 7.0 | 0.00 | 0.03 | 0.00 | 76 | 1007.1 |
| 20260903104557 | 59 | 74 | 4.0 | 7.0 | 0.00 | 0.03 | 0.00 | 77 | 1007.0 |
| 20260903104026 | 59 | 115 | 4.0 | 7.0 | 0.00 | 0.03 | 0.00 | 77 | 1006.9 |
| 20260903103525 | 59 | 99 | 3.0 | 6.0 | 0.00 | 0.03 | 0.00 | 77 | 1007.0 |
| 20260903103049 | 59 | 53 | 2.0 | 5.0 | 0.00 | 0.03 | 0.00 | 78 | 1007.0 |
| 20260903102526 | 59 | 77 | 3.0 | 5.0 | 0.00 | 0.03 | 0.00 | 77 | 1006.9 |
| 20260903102023 | 59 | 70 | 2.0 | 4.0 | 0.00 | 0.03 | 0.00 | 77 | 1006.9 |
| 20260903101544 | 59 | 96 | 2.0 | 7.0 | 0.00 | 0.03 | 0.00 | 77 | 1006.9 |
| 20260903101025 | 59 | 88 | 4.0 | 7.0 | 0.00 | 0.03 | 0.00 | 77 | 1006.8 |
| 20260903100527 | 59 | 70 | 2.0 | 12.0 | 0.00 | 0.03 | 0.00 | 77 | 1006.8 |
| 20260903100048 | 60 | 91 | 6.0 | 12.0 | 0.00 | 0.03 | 0.00 | 77 | 1006.9 |
| 20260903095528 | 59 | 131 | 4.0 | 8.0 | 0.00 | 0.03 | 0.00 | 78 | 1006.8 |
| 20260903095024 | 59 | 98 | 5.0 | 8.0 | 0.00 | 0.03 | 0.00 | 78 | 1006.7 |
| 20260903094558 | 59 | 105 | 4.0 | 7.0 | 0.00 | 0.03 | 0.00 | 78 | 1006.7 |
| 20260903094025 | 59 | 77 | 4.0 | 8.0 | 0.00 | 0.03 | 0.00 | 77 | 1006.7 |
| 20260903093526 | 60 | 113 | 4.0 | 8.0 | 0.00 | 0.03 | 0.00 | 77 | 1006.6 |
| 20260903093055 | 60 | 136 | 4.0 | 8.0 | 0.00 | 0.03 | 0.00 | 77 | 1006.6 |
| 20260903092529 | 60 | 93 | 4.0 | 8.0 | 0.00 | 0.03 | 0.00 | 77 | 1006.5 |
| 20260903092027 | 60 | 143 | 5.0 | 12.0 | 0.00 | 0.03 | 0.00 | 78 | 1006.5 |
| 20260903091553 | 60 | 101 | 6.0 | 13.0 | 0.00 | 0.03 | 0.00 | 77 | 1006.5 |
| 20260903091025 | 60 | 91 | 6.0 | 13.0 | 0.00 | 0.03 | 0.00 | 78 | 1006.5 |
| 20260903090524 | 60 | 88 | 7.0 | 14.0 | 0.00 | 0.03 | 0.00 | 78 | 1006.6 |
| 20260903090049 | 60 | 124 | 8.0 | 16.0 | 0.00 | 0.03 | 0.00 | 78 | 1006.6 |
| 20260903085526 | 60 | 120 | 7.0 | 16.0 | 0.00 | 0.03 | 0.00 | 78 | 1006.6 |
| 20260903085025 | 60 | 110 | 8.0 | 16.0 | 0.00 | 0.03 | 0.00 | 78 | 1006.6 |
| 20260903084546 | 60 | 143 | 6.0 | 15.0 | 0.00 | 0.03 | 0.00 | 79 | 1006.6 |
| 20260903084025 | 60 | 135 | 10.0 | 18.0 | 0.00 | 0.03 | 0.00 | 78 | 1006.6 |
| 20260903083526 | 60 | 139 | 10.0 | 18.0 | 0.00 | 0.03 | 0.00 | 79 | 1006.6 |
| 20260903083046 | 60 | 146 | 9.0 | 15.0 | 0.00 | 0.03 | 0.00 | 79 | 1006.6 |
| 20260903082528 | 60 | 128 | 9.0 | 19.0 | 0.00 | 0.03 | 0.00 | 79 | 1006.5 |
| 20260903082029 | 60 | 139 | 10.0 | 19.0 | 0.00 | 0.03 | 0.00 | 79 | 1006.5 |
| 20260903081553 | 60 | 133 | 7.0 | 14.0 | 0.00 | 0.03 | 0.00 | 80 | 1006.6 |
| 20260903081024 | 60 | 102 | 8.0 | 14.0 | 0.00 | 0.03 | 0.00 | 79 | 1006.6 |
| 20260903080525 | 60 | 136 | 10.0 | 15.0 | 0.00 | 0.03 | 0.00 | 80 | 1006.6 |
| 20260903080047 | 60 | 151 | 6.0 | 15.0 | 0.00 | 0.03 | 0.00 | 81 | 1006.5 |
| 20260903075528 | 60 | 115 | 9.0 | 15.0 | 0.00 | 0.03 | 0.00 | 80 | 1006.5 |
| 20260903075024 | 60 | 123 | 6.0 | 15.0 | 0.00 | 0.03 | 0.00 | 81 | 1006.5 |
| 20260903074556 | 60 | 144 | 8.0 | 16.0 | 0.00 | 0.03 | 0.00 | 80 | 1006.4 |
| 20260903074024 | 60 | 143 | 9.0 | 22.0 | 0.00 | 0.03 | 0.00 | 80 | 1006.4 |
| 20260903073526 | 60 | 118 | 11.0 | 22.0 | 0.00 | 0.03 | 0.00 | 81 | 1006.5 |
| 20260903073059 | 60 | 168 | 9.0 | 18.0 | 0.00 | 0.03 | 0.00 | 81 | 1006.4 |
| 20260903072524 | 60 | 140 | 10.0 | 18.0 | 0.00 | 0.03 | 0.00 | 81 | 1006.4 |
| 20260903072025 | 60 | 169 | 7.0 | 16.0 | 0.00 | 0.03 | 0.00 | 82 | 1006.4 |
| 20260903071548 | 60 | 131 | 8.0 | 16.0 | 0.00 | 0.03 | 0.00 | 82 | 1006.2 |
| 20260903071024 | 60 | 146 | 8.0 | 16.0 | 0.00 | 0.03 | 0.00 | 82 | 1006.2 |
| 20260903070525 | 60 | 110 | 9.0 | 18.0 | 0.00 | 0.03 | 0.00 | 82 | 1006.1 |
| 20260903070048 | 60 | 139 | 8.0 | 18.0 | 0.00 | 0.03 | 0.00 | 83 | 1006.0 |
| 20260903065525 | 60 | 102 | 9.0 | 15.0 | 0.00 | 0.03 | 0.03 | 83 | 1006.2 |
| 20260903065028 | 60 | 86 | 7.0 | 20.0 | 0.00 | 0.03 | 0.03 | 84 | 1006.3 |
| 20260903064552 | 60 | 134 | 8.0 | 20.0 | 0.00 | 0.03 | 0.03 | 84 | 1006.2 |
| 20260903064025 | 59 | 124 | 8.0 | 20.0 | 0.00 | 0.03 | 0.03 | 84 | 1006.1 |
| 20260903063525 | 59 | 221 | 7.0 | 14.0 | 0.00 | 0.03 | 0.03 | 84 | 1006.0 |
| 20260903063047 | 59 | 142 | 8.0 | 17.0 | 0.00 | 0.03 | 0.03 | 84 | 1006.0 |
| 20260903062525 | 60 | 133 | 8.0 | 17.0 | 0.00 | 0.03 | 0.03 | 84 | 1006.0 |
| 20260903062029 | 60 | 127 | 8.0 | 17.0 | 0.00 | 0.03 | 0.03 | 85 | 1006.1 |
| 20260903061547 | 60 | 113 | 10.0 | 16.0 | 0.00 | 0.03 | 0.03 | 84 | 1006.2 |
| 20260903061027 | 60 | 108 | 9.0 | 18.0 | 0.00 | 0.03 | 0.03 | 84 | 1006.1 |
| 20260903060526 | 60 | 146 | 10.0 | 18.0 | 0.00 | 0.03 | 0.03 | 84 | 1006.1 |
| 20260903060053 | 60 | 233 | 9.0 | 16.0 | 0.00 | 0.03 | 0.03 | 84 | 1005.9 |
| 20260903055526 | 60 | 131 | 8.0 | 17.0 | 0.00 | 0.03 | 0.03 | 84 | 1006.0 |
| 20260903055024 | 60 | 148 | 10.0 | 17.0 | 0.00 | 0.03 | 0.03 | 84 | 1006.0 |
| 20260903054544 | 59 | 124 | 9.0 | 15.0 | 0.00 | 0.03 | 0.03 | 84 | 1006.1 |
| 20260903054025 | 60 | 166 | 7.0 | 13.0 | 0.00 | 0.03 | 0.03 | 84 | 1006.1 |
| 20260903053526 | 59 | 133 | 6.0 | 15.0 | 0.00 | 0.03 | 0.03 | 85 | 1006.1 |
| 20260903053047 | 60 | 151 | 8.0 | 16.0 | 0.00 | 0.03 | 0.03 | 85 | 1006.0 |
| 20260903052524 | 59 | 160 | 8.0 | 16.0 | 0.00 | 0.03 | 0.03 | 84 | 1006.0 |
| 20260903052026 | 60 | 150 | 6.0 | 21.0 | 0.00 | 0.03 | 0.03 | 85 | 1006.0 |
| 20260903051554 | 60 | 89 | 6.0 | 21.0 | 0.00 | 0.03 | 0.03 | 85 | 1006.0 |
| 20260903051024 | 60 | 140 | 7.0 | 18.0 | 0.00 | 0.03 | 0.03 | 84 | 1005.9 |
| 20260903050528 | 60 | 142 | 8.0 | 15.0 | 0.00 | 0.03 | 0.03 | 84 | 1005.8 |
| 20260903050049 | 60 | 141 | 7.0 | 18.0 | 0.00 | 0.03 | 0.03 | 85 | 1005.9 |
| 20260903045525 | 60 | 238 | 7.0 | 18.0 | 0.00 | 0.03 | 0.03 | 84 | 1005.8 |
| 20260903045025 | 60 | 166 | 10.0 | 18.0 | 0.00 | 0.03 | 0.03 | 84 | 1005.8 |
| 20260903044548 | 60 | 165 | 8.0 | 15.0 | 0.00 | 0.03 | 0.03 | 85 | 1005.7 |
| 20260903044024 | 60 | 150 | 8.0 | 13.0 | 0.00 | 0.03 | 0.03 | 85 | 1005.5 |
| 20260903043525 | 60 | 144 | 8.0 | 18.0 | 0.00 | 0.03 | 0.03 | 84 | 1005.3 |
| 20260903043047 | 60 | 105 | 9.0 | 18.0 | 0.00 | 0.03 | 0.03 | 84 | 1005.2 |
| 20260903042526 | 60 | 86 | 6.0 | 17.0 | 0.00 | 0.03 | 0.03 | 84 | 1005.0 |
| 20260903042024 | 60 | 143 | 7.0 | 17.0 | 0.00 | 0.03 | 0.03 | 84 | 1004.9 |
| 20260903041551 | 60 | 208 | 6.0 | 13.0 | 0.00 | 0.03 | 0.03 | 84 | 1004.8 |
| 20260903041027 | 60 | 136 | 7.0 | 16.0 | 0.00 | 0.03 | 0.03 | 84 | 1004.7 |
| 20260903040524 | 60 | 130 | 9.0 | 16.0 | 0.00 | 0.03 | 0.03 | 84 | 1004.7 |
| 20260903040050 | 60 | 142 | 5.0 | 15.0 | 0.00 | 0.03 | 0.03 | 84 | 1004.6 |
| 20260903035525 | 60 | 164 | 6.0 | 15.0 | 0.00 | 0.03 | 0.03 | 84 | 1004.5 |
| 20260903035024 | 61 | 183 | 6.0 | 15.0 | 0.00 | 0.03 | 0.03 | 84 | 1004.5 |
| 20260903034545 | 61 | 168 | 6.0 | 17.0 | 0.00 | 0.03 | 0.03 | 84 | 1004.4 |
| 20260903034025 | 61 | 168 | 6.0 | 17.0 | 0.00 | 0.03 | 0.03 | 84 | 1004.3 |
| 20260903033524 | 61 | 125 | 7.0 | 17.0 | 0.00 | 0.03 | 0.03 | 83 | 1004.1 |
| 20260903033043 | 61 | 141 | 8.0 | 17.0 | 0.00 | 0.03 | 0.03 | 83 | 1003.9 |
| 20260903032525 | 61 | 169 | 6.0 | 15.0 | 0.00 | 0.03 | 0.03 | 83 | 1003.9 |
| 20260903032028 | 62 | 215 | 7.0 | 19.0 | 0.00 | 0.03 | 0.03 | 82 | 1003.8 |
| 20260903031554 | 62 | 106 | 8.0 | 20.0 | 0.00 | 0.03 | 0.03 | 82 | 1003.7 |
| 20260903031024 | 62 | 136 | 6.0 | 24.0 | 0.00 | 0.03 | 0.03 | 81 | 1003.6 |
| 20260903030527 | 62 | 169 | 11.0 | 25.0 | 0.00 | 0.03 | 0.03 | 80 | 1003.5 |
| 20260903030050 | 62 | 130 | 13.0 | 25.0 | 0.00 | 0.03 | 0.03 | 80 | 1003.2 |
| 20260903025525 | 63 | 152 | 13.0 | 25.0 | 0.00 | 0.03 | 0.03 | 80 | 1003.0 |
| 20260903025025 | 63 | 140 | 12.0 | 27.0 | 0.00 | 0.03 | 0.03 | 80 | 1002.8 |
| 20260903024549 | 63 | 134 | 14.0 | 27.0 | 0.00 | 0.03 | 0.03 | 79 | 1002.7 |
| 20260903024028 | 63 | 141 | 11.0 | 23.0 | 0.00 | 0.03 | 0.03 | 79 | 1002.6 |
| 20260903023525 | 63 | 122 | 10.0 | 15.0 | 0.00 | 0.03 | 0.03 | 80 | 1002.6 |
| 20260903023058 | 62 | 117 | 8.0 | 15.0 | 0.00 | 0.03 | 0.03 | 80 | 1002.5 |
| 20260903022526 | 62 | 131 | 9.0 | 18.0 | 0.00 | 0.03 | 0.03 | 79 | 1002.6 |
| 20260903022026 | 62 | 125 | 7.0 | 22.0 | 0.00 | 0.03 | 0.03 | 81 | 1002.5 |
| 20260903021551 | 62 | 144 | 12.0 | 23.0 | 0.00 | 0.03 | 0.03 | 80 | 1002.5 |
| 20260903021029 | 62 | 136 | 9.0 | 23.0 | 0.00 | 0.03 | 0.03 | 80 | 1002.3 |
| 20260903020524 | 62 | 145 | 14.0 | 23.0 | 0.00 | 0.03 | 0.03 | 80 | 1002.1 |
| 20260903020047 | 61 | 142 | 13.0 | 22.0 | 0.00 | 0.03 | 0.03 | 81 | 1002.0 |
| 20260903015526 | 61 | 130 | 8.0 | 15.0 | 0.00 | 0.03 | 0.03 | 85 | 1002.1 |
| 20260903015024 | 60 | 103 | 5.0 | 12.0 | 0.00 | 0.03 | 0.03 | 86 | 1001.9 |
| 20260903014548 | 60 | 75 | 5.0 | 9.0 | 0.01 | 0.03 | 0.03 | 86 | 1001.9 |
| 20260903014025 | 60 | 102 | 6.0 | 10.0 | 0.01 | 0.03 | 0.03 | 87 | 1001.9 |
| 20260903013524 | 60 | 109 | 5.0 | 11.0 | 0.01 | 0.03 | 0.03 | 87 | 1001.9 |
| 20260903013057 | 60 | 73 | 7.0 | 15.0 | 0.01 | 0.03 | 0.03 | 87 | 1002.1 |
| 20260903012525 | 60 | 132 | 7.0 | 17.0 | 0.02 | 0.03 | 0.03 | 87 | 1002.0 |
| 20260903012027 | 60 | 132 | 10.0 | 17.0 | 0.02 | 0.03 | 0.03 | 87 | 1001.9 |
| 20260903011549 | 60 | 101 | 9.0 | 17.0 | 0.02 | 0.03 | 0.03 | 88 | 1002.0 |
| 20260903011027 | 59 | 136 | 10.0 | 20.0 | 0.02 | 0.03 | 0.03 | 88 | 1002.2 |
| 20260903010525 | 59 | 170 | 11.0 | 20.0 | 0.02 | 0.03 | 0.03 | 88 | 1002.4 |
| 20260903010047 | 59 | 151 | 14.0 | 21.0 | 0.02 | 0.03 | 0.03 | 89 | 1002.4 |